<?xml version="1.0" encoding="UTF-8" standalone="no" ?>
<gpx xmlns="http://www.topografix.com/GPX/1/1" xmlns:xsi="http://www.w3.org/2001/XMLSchema-instance" xsi:schemaLocation="http://www.topografix.com/GPX/1/1 http://www.topografix.com/GPX/1/1/gpx.xsd" version="1.1" creator="VisuGPX - https://www.visugpx.com">
  <metadata>
    <name>etape 18 Lusignan - Chenay</name>
  </metadata>
  <trk>
    <name><![CDATA[etape 18 Lusignan - Chenay]]></name>
    <trkseg>
      <trkpt lat="46.43601" lon="0.12219">
        <ele>121.2</ele>
        <time>2011-10-19T07:27:52Z</time>
      </trkpt>
      <trkpt lat="46.43549" lon="0.12218">
        <ele>130.2</ele>
        <time>2011-10-19T07:28:31Z</time>
      </trkpt>
      <trkpt lat="46.43529" lon="0.12245">
        <ele>132.2</ele>
        <time>2011-10-19T07:28:52Z</time>
      </trkpt>
      <trkpt lat="46.43437" lon="0.12087">
        <ele>137.5</ele>
        <time>2011-10-19T07:30:42Z</time>
      </trkpt>
      <trkpt lat="46.43301" lon="0.1198">
        <ele>131.2</ele>
        <time>2011-10-19T07:32:41Z</time>
      </trkpt>
      <trkpt lat="46.43273" lon="0.1197">
        <ele>128.4</ele>
        <time>2011-10-19T07:33:03Z</time>
      </trkpt>
      <trkpt lat="46.43241" lon="0.11867">
        <ele>127.4</ele>
        <time>2011-10-19T07:34:03Z</time>
      </trkpt>
      <trkpt lat="46.43188" lon="0.11798">
        <ele>122.6</ele>
        <time>2011-10-19T07:34:58Z</time>
      </trkpt>
      <trkpt lat="46.4312" lon="0.11878">
        <ele>121.8</ele>
        <time>2011-10-19T07:36:06Z</time>
      </trkpt>
      <trkpt lat="46.43072" lon="0.11993">
        <ele>125.1</ele>
        <time>2011-10-19T07:37:17Z</time>
      </trkpt>
      <trkpt lat="46.42855" lon="0.11785">
        <ele>139.5</ele>
        <time>2011-10-19T07:40:37Z</time>
      </trkpt>
      <trkpt lat="46.42793" lon="0.11799">
        <ele>141.4</ele>
        <time>2011-10-19T07:41:25Z</time>
      </trkpt>
      <trkpt lat="46.42484" lon="0.11578">
        <ele>144.2</ele>
        <time>2011-10-19T07:45:50Z</time>
      </trkpt>
      <trkpt lat="46.42353" lon="0.11515">
        <ele>151.2</ele>
        <time>2011-10-19T07:47:36Z</time>
      </trkpt>
      <trkpt lat="46.42009" lon="0.11255">
        <ele>148.9</ele>
        <time>2011-10-19T07:52:35Z</time>
      </trkpt>
      <trkpt lat="46.41453" lon="0.10961">
        <ele>155.4</ele>
        <time>2011-10-19T08:00:11Z</time>
      </trkpt>
      <trkpt lat="46.41392" lon="0.10903">
        <ele>153.5</ele>
        <time>2011-10-19T08:01:07Z</time>
      </trkpt>
      <trkpt lat="46.41112" lon="0.10531">
        <ele>153.3</ele>
        <time>2011-10-19T08:05:59Z</time>
      </trkpt>
      <trkpt lat="46.41019" lon="0.10451">
        <ele>151.3</ele>
        <time>2011-10-19T08:07:22Z</time>
      </trkpt>
      <trkpt lat="46.40984" lon="0.10398">
        <ele>148.6</ele>
        <time>2011-10-19T08:08:01Z</time>
      </trkpt>
      <trkpt lat="46.40668" lon="0.10169">
        <ele>147.1</ele>
        <time>2011-10-19T08:12:33Z</time>
      </trkpt>
      <trkpt lat="46.40532" lon="0.10053">
        <ele>150.8</ele>
        <time>2011-10-19T08:14:34Z</time>
      </trkpt>
      <trkpt lat="46.40381" lon="0.09866">
        <ele>159.3</ele>
        <time>2011-10-19T08:17:07Z</time>
      </trkpt>
      <trkpt lat="46.40114" lon="0.09638">
        <ele>149.9</ele>
        <time>2011-10-19T08:21:06Z</time>
      </trkpt>
      <trkpt lat="46.39843" lon="0.09445">
        <ele>147.6</ele>
        <time>2011-10-19T08:24:59Z</time>
      </trkpt>
      <trkpt lat="46.3964" lon="0.09179">
        <ele>145.7</ele>
        <time>2011-10-19T08:28:29Z</time>
      </trkpt>
      <trkpt lat="46.39294" lon="0.089">
        <ele>141.4</ele>
        <time>2011-10-19T08:33:34Z</time>
      </trkpt>
      <trkpt lat="46.38956" lon="0.08583">
        <ele>141.5</ele>
        <time>2011-10-19T08:38:43Z</time>
      </trkpt>
      <trkpt lat="46.38842" lon="0.0842">
        <ele>142</ele>
        <time>2011-10-19T08:40:47Z</time>
      </trkpt>
      <trkpt lat="46.38788" lon="0.08313">
        <ele>141.8</ele>
        <time>2011-10-19T08:41:57Z</time>
      </trkpt>
      <trkpt lat="46.38598" lon="0.08203">
        <ele>138.5</ele>
        <time>2011-10-19T08:44:35Z</time>
      </trkpt>
      <trkpt lat="46.38429" lon="0.08141">
        <ele>137.6</ele>
        <time>2011-10-19T08:46:48Z</time>
      </trkpt>
      <trkpt lat="46.38205" lon="0.07885">
        <ele>135.8</ele>
        <time>2011-10-19T08:50:28Z</time>
      </trkpt>
      <trkpt lat="46.38016" lon="0.07608">
        <ele>134.2</ele>
        <time>2011-10-19T08:53:55Z</time>
      </trkpt>
      <trkpt lat="46.37974" lon="0.07512">
        <ele>133.1</ele>
        <time>2011-10-19T08:54:55Z</time>
      </trkpt>
      <trkpt lat="46.37637" lon="0.07071">
        <ele>131.4</ele>
        <time>2011-10-19T09:00:45Z</time>
      </trkpt>
      <trkpt lat="46.37554" lon="0.06936">
        <ele>132.9</ele>
        <time>2011-10-19T09:02:21Z</time>
      </trkpt>
      <trkpt lat="46.37516" lon="0.06811">
        <ele>133.9</ele>
        <time>2011-10-19T09:03:34Z</time>
      </trkpt>
      <trkpt lat="46.37442" lon="0.06721">
        <ele>135.5</ele>
        <time>2011-10-19T09:04:48Z</time>
      </trkpt>
      <trkpt lat="46.37325" lon="0.06646">
        <ele>134.3</ele>
        <time>2011-10-19T09:06:26Z</time>
      </trkpt>
      <trkpt lat="46.37237" lon="0.06439">
        <ele>131.7</ele>
        <time>2011-10-19T09:08:35Z</time>
      </trkpt>
      <trkpt lat="46.37209" lon="0.06412">
        <ele>131.9</ele>
        <time>2011-10-19T09:09:02Z</time>
      </trkpt>
      <trkpt lat="46.37027" lon="0.05904">
        <ele>133.3</ele>
        <time>2011-10-19T09:14:05Z</time>
      </trkpt>
      <trkpt lat="46.36982" lon="0.05854">
        <ele>133.3</ele>
        <time>2011-10-19T09:14:49Z</time>
      </trkpt>
      <trkpt lat="46.36869" lon="0.05876">
        <ele>135.3</ele>
        <time>2011-10-19T09:16:17Z</time>
      </trkpt>
      <trkpt lat="46.36666" lon="0.0576">
        <ele>138.3</ele>
        <time>2011-10-19T09:19:05Z</time>
      </trkpt>
      <trkpt lat="46.36326" lon="0.05798">
        <ele>138.8</ele>
        <time>2011-10-19T09:23:28Z</time>
      </trkpt>
      <trkpt lat="46.36001" lon="0.05593">
        <ele>143.9</ele>
        <time>2011-10-19T09:28:01Z</time>
      </trkpt>
      <trkpt lat="46.35972" lon="0.05565">
        <ele>144.6</ele>
        <time>2011-10-19T09:28:27Z</time>
      </trkpt>
      <trkpt lat="46.35989" lon="0.05406">
        <ele>145.6</ele>
        <time>2011-10-19T09:29:52Z</time>
      </trkpt>
      <trkpt lat="46.35943" lon="0.04996">
        <ele>144</ele>
        <time>2011-10-19T09:33:33Z</time>
      </trkpt>
      <trkpt lat="46.35796" lon="0.04675">
        <ele>141.4</ele>
        <time>2011-10-19T09:36:58Z</time>
      </trkpt>
      <trkpt lat="46.35642" lon="0.04336">
        <ele>145</ele>
        <time>2011-10-19T09:40:34Z</time>
      </trkpt>
      <trkpt lat="46.35495" lon="0.04117">
        <ele>146.4</ele>
        <time>2011-10-19T09:43:16Z</time>
      </trkpt>
      <trkpt lat="46.35426" lon="0.03889">
        <ele>145.1</ele>
        <time>2011-10-19T09:45:28Z</time>
      </trkpt>
      <trkpt lat="46.35261" lon="0.03635">
        <ele>147.7</ele>
        <time>2011-10-19T09:48:34Z</time>
      </trkpt>
      <trkpt lat="46.35207" lon="0.03372">
        <ele>151.1</ele>
        <time>2011-10-19T09:50:59Z</time>
      </trkpt>
      <trkpt lat="46.3484" lon="0.02729">
        <ele>147.4</ele>
        <time>2011-10-19T09:58:23Z</time>
      </trkpt>
      <trkpt lat="46.34637" lon="0.02116">
        <ele>143.9</ele>
        <time>2011-10-19T10:04:24Z</time>
      </trkpt>
      <trkpt lat="46.34578" lon="0.02001">
        <ele>144.1</ele>
        <time>2011-10-19T10:05:40Z</time>
      </trkpt>
      <trkpt lat="46.34646" lon="0.01851">
        <ele>142.2</ele>
        <time>2011-10-19T10:07:15Z</time>
      </trkpt>
      <trkpt lat="46.34629" lon="0.0176">
        <ele>141.6</ele>
        <time>2011-10-19T10:08:06Z</time>
      </trkpt>
      <trkpt lat="46.34645" lon="0.01664">
        <ele>140</ele>
        <time>2011-10-19T10:08:58Z</time>
      </trkpt>
      <trkpt lat="46.34331" lon="0.01486">
        <ele>136.7</ele>
        <time>2011-10-19T10:13:18Z</time>
      </trkpt>
      <trkpt lat="46.3421" lon="0.01296">
        <ele>135.3</ele>
        <time>2011-10-19T10:15:35Z</time>
      </trkpt>
      <trkpt lat="46.33944" lon="0.01109">
        <ele>137</ele>
        <time>2011-10-19T10:19:23Z</time>
      </trkpt>
      <trkpt lat="46.33975" lon="0.00894">
        <ele>133.8</ele>
        <time>2011-10-19T10:21:20Z</time>
      </trkpt>
      <trkpt lat="46.33842" lon="0.00517">
        <ele>131.2</ele>
        <time>2011-10-19T10:25:04Z</time>
      </trkpt>
      <trkpt lat="46.3384" lon="0.00286">
        <ele>132</ele>
        <time>2011-10-19T10:27:07Z</time>
      </trkpt>
      <trkpt lat="46.33752" lon="-0.00027">
        <ele>133.3</ele>
        <time>2011-10-19T10:30:07Z</time>
      </trkpt>
      <trkpt lat="46.33646" lon="-0.00743">
        <ele>132.6</ele>
        <time>2011-10-19T10:36:36Z</time>
      </trkpt>
      <trkpt lat="46.33389" lon="-0.00974">
        <ele>134.5</ele>
        <time>2011-10-19T10:40:29Z</time>
      </trkpt>
      <trkpt lat="46.33293" lon="-0.01187">
        <ele>133.6</ele>
        <time>2011-10-19T10:42:44Z</time>
      </trkpt>
      <trkpt lat="46.33202" lon="-0.0126">
        <ele>134.4</ele>
        <time>2011-10-19T10:44:04Z</time>
      </trkpt>
      <trkpt lat="46.33174" lon="-0.01528">
        <ele>136.3</ele>
        <time>2011-10-19T10:46:28Z</time>
      </trkpt>
      <trkpt lat="46.33126" lon="-0.01592">
        <ele>136.6</ele>
        <time>2011-10-19T10:47:18Z</time>
      </trkpt>
      <trkpt lat="46.3315" lon="-0.01821">
        <ele>133.5</ele>
        <time>2011-10-19T10:49:21Z</time>
      </trkpt>
      <trkpt lat="46.33071" lon="-0.01953">
        <ele>131.7</ele>
        <time>2011-10-19T10:50:54Z</time>
      </trkpt>
      <trkpt lat="46.33006" lon="-0.02259">
        <ele>127.9</ele>
        <time>2011-10-19T10:53:44Z</time>
      </trkpt>
      <trkpt lat="46.32754" lon="-0.02851">
        <ele>125.5</ele>
        <time>2011-10-19T10:59:54Z</time>
      </trkpt>
      <trkpt lat="46.32689" lon="-0.02907">
        <ele>124.1</ele>
        <time>2011-10-19T11:00:52Z</time>
      </trkpt>
      <trkpt lat="46.32593" lon="-0.03113">
        <ele>123.8</ele>
        <time>2011-10-19T11:03:04Z</time>
      </trkpt>
      <trkpt lat="46.32606" lon="-0.03246">
        <ele>125.4</ele>
        <time>2011-10-19T11:04:15Z</time>
      </trkpt>
      <trkpt lat="46.32568" lon="-0.03354">
        <ele>127.1</ele>
        <time>2011-10-19T11:05:20Z</time>
      </trkpt>
    </trkseg>
  </trk>
</gpx>